Time;durP1;ratioP1;P1;durP2;ratioP2;P2;SDS_P1;SDS_P2;PMS_P1;PMS_P2;Temp;Humidity;BMP_temperature;BMP_pressure;BME280_temperature;BME280_humidity;BME280_pressure;Samples;Min_cycle;Max_cycle;Signal;HPM_P1;HPM_P2
2022/07/28 00:01:23;;;;;;;;;;;;;;;17.33;62.08;98956.97;1382014;83;21302;-71
2022/07/28 00:03:25;;;;;;;5.58;1.90;;;;;;;17.27;62.11;98955.63;1378190;82;20596;-71
2022/07/28 00:05:26;;;;;;;7.17;1.75;;;;;;;17.21;62.17;98952.12;1375615;84;80767;-71
2022/07/28 00:07:27;;;;;;;8.05;1.77;;;;;;;17.17;62.13;98957.31;1379355;82;21052;-70
2022/07/28 00:09:28;;;;;;;5.37;1.90;;;;;;;17.13;62.19;98958.51;1379650;83;81997;-71
2022/07/28 00:11:31;;;;;;;4.10;1.87;;;;;;;17.08;62.23;98952.17;1376502;84;21632;-71
2022/07/28 00:13:32;;;;;;;5.87;1.77;;;;;;;17.06;62.29;98955.91;1383418;83;21150;-71
2022/07/28 00:15:33;;;;;;;16.60;2.00;;;;;;;17.01;62.31;98957.11;1376351;82;81557;-71
2022/07/28 00:17:34;;;;;;;;;;;;;;;17.00;62.38;98954.11;1380679;84;21021;-71
2022/07/28 00:19:35;;;;;;;5.62;2.00;;;;;;;16.97;62.38;98961.46;1379529;83;68517;-72
2022/07/28 00:21:36;;;;;;;5.03;1.52;;;;;;;16.93;62.38;98962.16;1379481;83;21084;-71
2022/07/28 00:23:38;;;;;;;7.80;1.90;;;;;;;16.92;62.47;98964.94;1378535;83;21135;-71
2022/07/28 00:25:39;;;;;;;6.25;1.57;;;;;;;16.90;62.39;98963.73;1379401;83;81494;-71
2022/07/28 00:27:39;;;;;;;;;;;;;;;16.88;62.37;98964.77;1381355;83;21068;-70
2022/07/28 00:29:40;;;;;;;2.83;1.47;;;;;;;16.83;62.30;98969.95;1373200;83;67382;-71
2022/07/28 00:31:41;;;;;;;;;;;;;;;16.80;62.34;98975.52;1379045;82;21890;-71
2022/07/28 00:33:42;;;;;;;3.67;1.60;;;;;;;16.74;62.30;98971.98;1378341;83;20197;-72
2022/07/28 00:35:43;;;;;;;4.50;1.70;;;;;;;16.71;62.39;98977.52;1372512;85;81630;-71
2022/07/28 00:37:44;;;;;;;;;;;;;;;16.69;62.52;98971.47;1380083;83;22139;-71
2022/07/28 00:39:45;;;;;;;2.70;1.50;;;;;;;16.68;62.54;98976.41;1381529;83;67409;-71
2022/07/28 00:41:46;;;;;;;;;;;;;;;16.51;62.51;98955.05;1378441;84;21076;-71
2022/07/28 00:43:49;;;;;;;3.58;1.42;;;;;;;16.62;62.57;98976.88;1376144;83;67468;-71
2022/07/28 00:45:50;;;;;;;6.50;1.75;;;;;;;16.59;62.60;98979.28;1381851;84;21045;-70
2022/07/28 00:47:51;;;;;;;5.30;1.37;;;;;;;16.60;62.53;98984.98;1376439;84;21025;-70
2022/07/28 00:49:52;;;;;;;;;;;;;;;16.59;62.50;98981.11;1374766;83;80697;-70
2022/07/28 00:51:53;;;;;;;6.33;1.67;;;;;;;16.58;62.50;98974.08;1377259;82;20191;-71
2022/07/28 00:53:55;;;;;;;3.70;1.87;;;;;;;16.53;62.52;98970.41;1377762;84;80832;-71
2022/07/28 00:55:58;;;;;;;5.33;1.65;;;;;;;16.54;62.52;98971.27;1378111;83;21013;-70
2022/07/28 00:58:00;;;;;;;7.90;1.70;;;;;;;16.51;62.57;98974.51;1378797;83;21106;-69
2022/07/28 01:00:01;;;;;;;6.65;1.47;;;;;;;16.50;62.49;98978.61;1374879;83;80988;-70
2022/07/28 01:02:02;;;;;;;;;;;;;;;16.48;62.51;98982.72;1381122;83;21017;-70
2022/07/28 01:04:04;;;;;;;5.20;1.82;;;;;;;16.47;62.61;98979.68;1374958;83;67251;-70
2022/07/28 01:06:25;;;;;;;2.30;1.27;;;;;;;16.47;62.67;98979.68;1377719;83;21017;-70
2022/07/28 01:08:48;;;;;;;8.40;1.90;;;;;;;16.47;62.66;98970.37;1377924;83;21013;-72
2022/07/28 01:11:11;;;;;;;3.58;2.00;;;;;;;16.47;62.80;98973.03;1380080;83;21053;-71
2022/07/28 01:13:28;;;;;;;7.87;2.27;;;;;;;16.47;62.85;98974.36;1379524;82;21079;-70
2022/07/28 01:15:33;;;;;;;3.95;1.75;;;;;;;16.48;62.99;98977.40;1374073;84;81614;-70
2022/07/28 01:17:44;;;;;;;3.87;2.00;;;;;;;16.46;62.98;98979.34;1377874;84;21545;-70
2022/07/28 01:19:51;;;;;;;6.97;2.22;;;;;;;16.47;62.97;98984.16;1376109;83;80826;-70
2022/07/28 01:21:54;;;;;;;5.05;1.82;;;;;;;16.46;63.02;98983.33;1378956;83;21532;-70
2022/07/28 01:24:05;;;;;;;5.83;2.42;;;;;;;16.46;63.10;98982.00;1374451;84;80964;-70
2022/07/28 01:26:35;;;;;;;5.95;1.80;;;;;;;16.45;63.05;98982.95;1376402;83;21080;-70
2022/07/28 01:29:00;;;;;;;3.17;2.20;;;;;;;16.44;63.00;98978.58;1379342;83;21081;-70
2022/07/28 01:31:04;;;;;;;9.60;1.98;;;;;;;16.43;62.93;98974.22;1348839;86;21124;-69
2022/07/28 01:33:15;;;;;;;6.35;1.87;;;;;;;16.43;63.06;98970.72;1374669;83;21112;-69
2022/07/28 01:35:21;;;;;;;;;;;;;;;16.45;63.10;98968.81;1378017;82;80835;-70
2022/07/28 01:37:26;;;;;;;6.87;2.15;;;;;;;16.46;63.16;98963.38;1383138;83;20485;-70
2022/07/28 01:39:31;;;;;;;7.30;1.87;;;;;;;16.45;63.29;98971.47;1377352;83;80773;-70
2022/07/28 01:41:35;;;;;;;8.23;2.52;;;;;;;16.46;63.26;98966.03;1377789;84;21045;-70
2022/07/28 01:43:40;;;;;;;4.95;1.82;;;;;;;16.44;63.25;98970.60;1381065;83;21051;-71
2022/07/28 01:45:43;;;;;;;11.15;2.08;;;;;;;16.44;63.26;98970.60;1378558;82;80657;-71
2022/07/28 01:47:47;;;;;;;2.67;1.85;;;;;;;16.43;63.24;98966.23;1378329;83;21040;-71
2022/07/28 01:49:50;;;;;;;12.10;1.60;;;;;;;16.42;63.28;98968.55;1377095;82;80716;-70
2022/07/28 01:51:53;;;;;;;5.05;2.40;;;;;;;16.40;63.37;98962.97;1377116;83;21089;-70
2022/07/28 01:53:57;;;;;;;8.83;1.82;;;;;;;16.40;63.40;98962.97;1373159;84;81646;-70
2022/07/28 01:56:00;;;;;;;5.12;2.08;;;;;;;16.40;63.33;98965.13;1378115;83;21291;-70
2022/07/28 01:58:03;;;;;;;6.67;2.05;;;;;;;16.37;63.41;98965.36;1377851;83;21037;-70
2022/07/28 02:00:08;;;;;;;13.68;2.45;;;;;;;16.37;63.36;98976.00;1376399;84;80951;-71
2022/07/28 02:02:14;;;;;;;6.53;2.17;;;;;;;16.36;63.38;98982.27;1375155;84;21612;-70
2022/07/28 02:04:18;;;;;;;14.50;3.17;;;;;;;16.36;63.50;98990.75;1378662;84;80859;-70
2022/07/28 02:06:22;;;;;;;6.65;2.20;;;;;;;16.35;63.44;98993.87;1380046;84;21060;-71
2022/07/28 02:08:24;;;;;;;7.83;3.27;;;;;;;16.37;63.43;98993.78;1379300;84;21500;-70
2022/07/28 02:10:27;;;;;;;7.50;2.10;;;;;;;16.38;63.41;98989.68;1379131;83;81488;-70
2022/07/28 02:12:29;;;;;;;9.20;2.02;;;;;;;16.40;63.35;98987.75;1373995;84;21099;-70
2022/07/28 02:14:32;;;;;;;20.90;2.67;;;;;;;16.43;63.28;98991.51;1376783;84;81025;-70
2022/07/28 02:16:33;;;;;;;19.45;2.67;;;;;;;16.45;63.25;98992.75;1380020;82;21390;-70
2022/07/28 02:18:36;;;;;;;6.05;2.20;;;;;;;16.45;63.30;98996.74;1377949;83;21096;-71
2022/07/28 02:20:38;;;;;;;4.25;1.75;;;;;;;16.43;63.35;98992.84;1380169;83;81793;-70
2022/07/28 02:22:41;;;;;;;9.33;2.25;;;;;;;16.42;63.33;98995.61;1378622;83;21615;-69
2022/07/28 02:24:44;;;;;;;10.88;2.05;;;;;;;16.41;63.36;98997.44;1373171;84;80702;-70
2022/07/28 02:26:52;;;;;;;10.63;2.35;;;;;;;16.43;63.28;98998.65;1377227;84;21041;-71
2022/07/28 02:28:56;;;;;;;2.72;2.12;;;;;;;16.43;63.30;98994.66;1376457;83;82189;-71
2022/07/28 02:31:00;;;;;;;7.97;2.27;;;;;;;16.44;63.15;98994.55;1379246;83;22150;-70
2022/07/28 02:33:08;;;;;;;14.10;3.02;;;;;;;16.46;63.18;99002.41;1376399;83;21390;-70
2022/07/28 02:35:34;;;;;;;10.70;2.30;;;;;;;16.47;63.16;98999.63;1375287;83;81044;-70
2022/07/28 02:37:41;;;;;;;12.75;2.45;;;;;;;16.46;63.12;98999.75;1341636;87;21181;-69
2022/07/28 02:39:46;;;;;;;11.28;2.22;;;;;;;16.44;63.08;99000.36;1338935;87;81819;-70
2022/07/28 02:41:51;;;;;;;7.95;2.70;;;;;;;16.43;63.13;99004.80;1342448;87;21091;-70
2022/07/28 02:43:55;;;;;;;7.47;2.20;;;;;;;16.43;63.14;99006.14;1339504;87;81584;-69
2022/07/28 02:45:59;;;;;;;5.17;2.10;;;;;;;16.46;63.21;99011.72;1342058;86;21130;-70
2022/07/28 02:48:07;;;;;;;10.23;2.05;;;;;;;16.46;63.13;99011.27;1342542;87;21071;-70
2022/07/28 02:50:10;;;;;;;14.30;2.42;;;;;;;16.46;63.11;99015.71;1340053;87;80912;-71
2022/07/28 02:52:12;;;;;;;5.22;2.20;;;;;;;16.47;63.20;99015.59;1341198;87;21019;-70
2022/07/28 02:54:16;;;;;;;7.45;2.50;;;;;;;16.48;63.17;99017.31;1341037;87;80927;-69
2022/07/28 02:56:17;;;;;;;6.53;1.85;;;;;;;16.49;63.10;99016.81;1342263;87;21103;-70
2022/07/28 02:58:21;;;;;;;12.85;2.20;;;;;;;16.48;63.13;99021.79;1341220;87;21047;-70
2022/07/28 03:00:24;;;;;;;3.20;2.30;;;;;;;16.49;63.18;99023.47;1339333;87;81624;-70
2022/07/28 03:02:29;;;;;;;15.63;2.70;;;;;;;16.48;63.18;99026.62;1342482;87;21050;-70
2022/07/28 03:06:49;;;;;;;8.93;2.62;;;;;;;16.51;63.31;99038.36;1342279;87;21232;-71
2022/07/28 03:08:49;;;;;;;;;;;;;;;16.51;63.35;99043.69;1343664;87;81859;-70
2022/07/28 03:10:54;;;;;;;12.75;3.15;;;;;;;16.50;63.55;99051.32;1342623;87;20220;-70
2022/07/28 03:12:59;;;;;;;5.03;2.00;;;;;;;16.48;63.27;99045.73;1342815;84;21674;-70
2022/07/28 03:15:02;;;;;;;8.30;2.42;;;;;;;16.49;63.17;99048.74;1373126;84;81781;-71
2022/07/28 03:17:04;;;;;;;7.12;2.30;;;;;;;16.49;63.21;99052.27;1379945;83;21403;-72
2022/07/28 03:19:06;;;;;;;13.08;2.40;;;;;;;16.50;63.24;99053.98;1376072;83;82210;-70
2022/07/28 03:21:07;;;;;;;21.12;2.47;;;;;;;16.51;63.30;99056.98;1378510;83;21036;-73
2022/07/28 03:23:09;;;;;;;;;;;;;;;16.52;63.30;99055.20;1383488;83;21430;-70
2022/07/28 03:25:20;;;;;;;10.58;2.52;;;;;;;16.50;63.31;99057.97;1385961;83;67322;-70
2022/07/28 03:27:30;;;;;;;17.90;2.35;;;;;;;16.47;63.31;99058.17;1385088;82;21873;-70
2022/07/28 03:29:33;;;;;;;14.80;2.50;;;;;;;16.48;63.21;99056.37;1384201;83;82093;-70
2022/07/28 03:31:36;;;;;;;5.42;2.42;;;;;;;16.47;63.25;99054.17;1385518;83;21521;-71
2022/07/28 03:33:37;;;;;;;12.58;2.80;;;;;;;16.46;63.44;99051.17;1386298;83;21022;-70
2022/07/28 03:35:43;;;;;;;2.52;2.00;;;;;;;16.47;63.50;99055.51;1382948;83;81754;-70
2022/07/28 03:38:10;;;;;;;6.72;2.83;;;;;;;16.47;63.28;99050.67;1368611;83;21339;-71
2022/07/28 03:40:13;;;;;;;9.73;2.22;;;;;;;16.45;63.25;99052.61;1380989;83;81979;-71
2022/07/28 03:42:17;;;;;;;13.75;2.90;;;;;;;16.44;63.33;99057.06;1385784;83;21623;-69
2022/07/28 03:44:19;;;;;;;13.03;2.50;;;;;;;16.46;63.32;99060.94;1383189;83;81650;-71
2022/07/28 03:46:20;;;;;;;14.28;2.60;;;;;;;16.44;63.26;99061.05;1386229;82;21516;-70
2022/07/28 03:48:24;;;;;;;10.93;2.65;;;;;;;16.44;63.36;99065.53;1387134;83;21024;-70
2022/07/28 03:50:28;;;;;;;10.15;2.22;;;;;;;16.42;63.40;99060.33;1382273;83;82025;-71
2022/07/28 03:52:29;;;;;;;7.78;2.15;;;;;;;16.41;63.39;99071.92;1385544;82;21052;-71
2022/07/28 03:54:30;;;;;;;;;;;;;;;16.39;63.43;99067.66;1386653;83;80776;-70
2022/07/28 03:56:31;;;;;;;8.00;2.70;;;;;;;16.39;63.51;99068.99;1387338;83;20191;-70
2022/07/28 03:58:32;;;;;;;11.95;2.60;;;;;;;16.37;63.59;99075.75;1385019;83;21717;-71
2022/07/28 04:00:33;;;;;;;;;;;;;;;16.34;63.56;99070.17;1385565;83;80821;-70
2022/07/28 04:02:34;;;;;;;3.47;2.22;;;;;;;16.35;63.50;99080.31;1384922;83;20149;-70
2022/07/28 04:04:34;;;;;;;;;;;;;;;16.34;63.56;99086.63;1386445;82;80784;-69
2022/07/28 04:06:36;;;;;;;7.42;2.35;;;;;;;16.33;63.61;99082.25;1384949;83;20573;-71
2022/07/28 04:08:37;;;;;;;;;;;;;;;16.32;63.60;99080.54;1391028;83;21060;-70
2022/07/28 04:10:39;;;;;;;5.30;2.25;;;;;;;16.33;63.67;99079.59;1386983;83;67231;-70
2022/07/28 04:12:52;;;;;;;5.87;2.42;;;;;;;16.32;63.62;99079.21;1370984;84;21042;-71
2022/07/28 04:14:53;;;;;;;16.67;2.60;;;;;;;16.33;63.74;99080.92;1380808;84;80720;-70
2022/07/28 04:16:54;;;;;;;;;;;;;;;16.34;63.84;99081.30;1389756;82;21104;-70
2022/07/28 04:18:54;;;;;;;10.05;2.55;;;;;;;16.34;63.82;99083.47;1384845;82;67893;-70
2022/07/28 04:20:55;;;;;;;;;;;;;;;16.34;63.85;99079.97;1386894;83;21532;-71
2022/07/28 04:22:56;;;;;;;11.03;2.80;;;;;;;16.35;63.83;99088.30;1386732;83;20163;-71
2022/07/28 04:24:57;;;;;;;;;;;;;;;16.32;63.70;99088.52;1380822;83;80874;-72
2022/07/28 04:26:58;;;;;;;9.33;2.47;;;;;;;16.33;63.80;99090.23;1377716;84;20137;-70
2022/07/28 04:28:59;;;;;;;;;;;;;;;16.32;63.82;99077.42;1379555;83;81026;-71
2022/07/28 04:31:00;;;;;;;15.75;2.55;;;;;;;16.33;63.68;99074.27;1378090;83;20556;-71
2022/07/28 04:33:01;;;;;;;5.20;1.90;;;;;;;16.33;63.74;99084.91;1376079;83;21041;-70
2022/07/28 04:35:02;;;;;;;;;;;;;;;16.34;63.75;99083.95;1378873;84;81747;-71
2022/07/28 04:37:03;;;;;;;12.23;2.50;;;;;;;16.35;63.80;99078.98;1379464;83;20169;-70
2022/07/28 04:39:04;;;;;;;;;;;;;;;16.35;63.80;99078.98;1379920;84;82215;-70
2022/07/28 04:41:05;;;;;;;7.05;2.98;;;;;;;16.38;63.79;99072.14;1376051;83;20137;-70
2022/07/28 04:43:06;;;;;;;15.48;2.52;;;;;;;16.38;63.70;99080.59;1376190;83;21112;-70
2022/07/28 04:45:07;;;;;;;;;;;;;;;16.38;63.72;99072.14;1377281;84;80954;-70
2022/07/28 04:47:08;;;;;;;15.08;2.60;;;;;;;16.39;63.71;99076.48;1380164;83;20159;-69
2022/07/28 04:49:09;;;;;;;;;;;;;;;16.38;63.67;99076.13;1376471;83;80892;-69
2022/07/28 04:51:10;;;;;;;14.65;4.65;;;;;;;16.38;63.74;99069.48;1375513;84;20307;-69
2022/07/28 04:53:11;;;;;;;;;;;;;;;16.37;63.75;99079.75;1379341;83;21561;-69
2022/07/28 04:55:12;;;;;;;8.58;2.70;;;;;;;16.34;63.84;99075.98;1377449;82;67315;-70
2022/07/28 04:57:13;;;;;;;;;;;;;;;16.31;63.72;99084.16;1378335;83;21342;-69
2022/07/28 04:59:14;;;;;;;15.85;2.55;;;;;;;16.29;63.59;99088.25;1376117;83;67328;-70
2022/07/28 05:01:15;;;;;;;10.40;2.98;;;;;;;16.27;63.60;99081.33;1376747;82;21665;-69
2022/07/28 05:03:17;;;;;;;;;;;;;;;16.27;63.75;99101.28;1381866;84;21025;-70
2022/07/28 05:05:17;;;;;;;;;;;;;;;16.29;63.96;99100.22;1378883;83;67184;-70
2022/07/28 05:07:19;;;;;;;18.82;2.52;;;;;;;16.28;63.76;99097.67;1376059;83;20141;-70
2022/07/28 05:09:20;;;;;;;29.15;3.47;;;;;;;16.27;63.87;99103.48;1374391;83;80954;-70
2022/07/28 05:11:21;;;;;;;21.52;3.35;;;;;;;16.26;63.83;99104.92;1380141;83;21073;-69
2022/07/28 05:13:22;;;;;;;;;;;;;;;16.28;63.87;99110.97;1382240;83;21126;-70
2022/07/28 05:15:23;;;;;;;;;;;;;;;16.27;63.74;99115.45;1376679;83;68088;-69
2022/07/28 05:17:24;;;;;;;14.00;3.15;;;;;;;16.26;63.69;99110.24;1378042;83;21141;-70
2022/07/28 05:19:25;;;;;;;;;;;;;;;16.26;63.69;99114.23;1379205;83;80989;-70
2022/07/28 05:21:26;;;;;;;13.88;3.08;;;;;;;16.27;63.83;99111.92;1377468;84;20141;-70
2022/07/28 05:23:27;;;;;;;;;;;;;;;16.28;63.83;99113.17;1374267;83;21772;-70
2022/07/28 05:25:28;;;;;;;14.35;2.33;;;;;;;16.29;63.91;99117.51;1348801;86;68379;-71
2022/07/28 05:27:29;;;;;;;10.30;2.92;;;;;;;16.30;63.89;99117.05;1344208;86;21254;-70
2022/07/28 05:29:30;;;;;;;;;;;;;;;16.33;63.87;99122.15;1348476;85;82008;-71
2022/07/28 05:31:31;;;;;;;14.25;2.77;;;;;;;16.33;63.72;99126.14;1364930;85;20193;-70
2022/07/28 05:33:32;;;;;;;14.10;2.65;;;;;;;16.33;63.76;99128.80;1366674;85;21096;-70
2022/07/28 05:35:33;;;;;;;;;;;;;;;16.36;63.83;99128.58;1343335;86;80905;-70
2022/07/28 05:37:35;;;;;;;22.37;2.58;;;;;;;16.39;63.81;99127.52;1366450;85;20207;-69
2022/07/28 05:39:36;;;;;;;13.98;2.60;;;;;;;16.42;63.71;99132.16;1360386;85;81960;-70
2022/07/28 05:41:37;;;;;;;16.35;3.10;;;;;;;16.46;63.69;99136.30;1357475;85;21622;-70
2022/07/28 05:43:38;;;;;;;;;;;;;;;16.48;63.61;99132.20;1361088;85;21019;-69
2022/07/28 05:45:39;;;;;;;7.35;3.22;;;;;;;16.48;63.73;99131.71;1359260;85;67142;-69
2022/07/28 05:47:47;;;;;;;9.88;2.50;;;;;;;16.47;63.78;99127.34;1360227;85;21645;-70
2022/07/28 05:49:48;;;;;;;16.80;2.30;;;;;;;16.47;63.80;99134.48;1356577;85;80793;-69
2022/07/28 05:51:48;;;;;;;;;;;;;;;16.47;63.85;99139.31;1364156;85;21108;-68
2022/07/28 05:53:49;;;;;;;35.70;3.60;;;;;;;16.47;63.84;99137.98;1363863;85;68261;-69
2022/07/28 05:55:50;;;;;;;;;;;;;;;16.49;63.67;99142.73;1364973;84;21044;-69
2022/07/28 05:57:52;;;;;;;20.30;2.85;;;;;;;16.51;63.63;99143.95;1367759;85;20632;-69
2022/07/28 05:59:54;;;;;;;27.70;3.10;;;;;;;16.54;63.75;99146.39;1360544;85;81084;-70
2022/07/28 06:01:54;;;;;;;;;;;;;;;16.58;63.75;99148.37;1368736;83;21063;-69
2022/07/28 06:03:55;;;;;;;7.20;2.30;;;;;;;16.61;63.78;99154.31;1365328;85;67532;-69
2022/07/28 06:05:56;;;;;;;;;;;;;;;16.63;63.87;99150.23;1367918;85;21095;-70
2022/07/28 06:07:58;;;;;;;65.30;6.65;;;;;;;16.62;63.82;99144.53;1364648;84;20143;-69
2022/07/28 06:09:59;;;;;;;48.20;4.17;;;;;;;16.64;63.69;99153.25;1362362;83;81480;-70
2022/07/28 06:12:00;;;;;;;;;;;;;;;16.65;63.65;99147.81;1363046;85;22233;-70
2022/07/28 06:14:01;;;;;;;59.05;7.28;;;;;;;16.66;63.66;99145.53;1366053;85;68285;-70
2022/07/28 06:16:03;;;;;;;;;;;;;;;16.70;63.71;99150.16;1368074;85;21134;-70
2022/07/28 06:18:04;;;;;;;12.63;2.25;;;;;;;16.72;63.65;99150.89;1364465;85;20201;-69
2022/07/28 06:20:06;;;;;;;6.83;2.50;;;;;;;16.74;63.51;99152.11;1360705;84;80984;-70
2022/07/28 06:22:07;;;;;;;8.38;2.45;;;;;;;16.74;63.59;99145.00;1368434;85;21127;-70
2022/07/28 06:24:08;;;;;;;10.45;2.50;;;;;;;16.79;63.65;99153.48;1358059;85;82126;-69
2022/07/28 06:26:09;;;;;;;104.47;7.83;;;;;;;16.83;63.64;99146.98;1358144;85;21067;-69
2022/07/28 06:28:10;;;;;;;;;;;;;;;16.89;63.70;99149.75;1360766;85;21113;-70
2022/07/28 06:30:11;;;;;;;6.95;2.67;;;;;;;16.96;63.68;99150.13;1362809;85;67129;-70
2022/07/28 06:32:15;;;;;;;57.25;4.53;;;;;;;17.01;63.71;99148.00;1366894;85;21619;-71
2022/07/28 06:34:16;;;;;;;104.43;7.90;;;;;;;17.08;63.57;99144.41;1361048;85;81088;-70
2022/07/28 06:36:17;;;;;;;59.53;6.30;;;;;;;17.14;63.30;99147.95;1337013;86;21081;-69
2022/07/28 06:38:19;;;;;;;;;;;;;;;17.21;63.58;99152.35;1366781;85;21044;-69
2022/07/28 06:40:20;;;;;;;34.78;3.35;;;;;;;17.32;63.44;99152.41;1364017;85;67361;-69
2022/07/28 06:42:21;;;;;;;20.32;2.58;;;;;;;17.40;63.34;99148.70;1367014;85;21557;-69
2022/07/28 06:44:22;;;;;;;4.35;2.20;;;;;;;17.48;63.30;99147.66;1337827;86;80933;-69
2022/07/28 06:46:23;;;;;;;;;;;;;;;17.58;63.32;99141.64;1367672;85;21640;-71
2022/07/28 06:48:24;;;;;;;117.77;7.70;;;;;;;17.67;63.04;99146.30;1364141;85;20147;-69
2022/07/28 06:50:25;;;;;;;;;;;;;;;17.71;62.82;99145.11;1363805;85;82571;-70
2022/07/28 06:52:26;;;;;;;33.55;2.70;;;;;;;17.62;62.47;99123.13;1365160;85;21158;-69
2022/07/28 06:54:27;;;;;;;64.72;5.10;;;;;;;17.79;62.46;99145.84;1366085;83;81118;-70
2022/07/28 06:56:28;;;;;;;17.23;2.30;;;;;;;17.84;62.45;99146.35;1363218;85;21003;-69
2022/07/28 06:58:30;;;;;;;4.97;1.75;;;;;;;17.88;62.16;99152.66;1363133;83;21080;-69
2022/07/28 07:00:31;;;;;;;9.95;2.08;;;;;;;17.90;62.09;99151.70;1360877;85;81452;-70
2022/07/28 07:02:41;;;;;;;19.73;2.30;;;;;;;17.93;62.20;99148.83;1365734;85;21717;-70
2022/07/28 07:04:42;;;;;;;17.20;2.55;;;;;;;17.98;62.10;99146.66;1362918;85;82207;-70
2022/07/28 07:06:43;;;;;;;18.23;2.92;;;;;;;18.03;62.02;99153.84;1363909;85;21071;-71
2022/07/28 07:08:46;;;;;;;15.28;2.80;;;;;;;18.06;61.75;99153.60;1385397;83;21036;-70
2022/07/28 07:10:47;;;;;;;9.55;2.30;;;;;;;18.08;61.76;99157.48;1384724;83;81451;-70
2022/07/28 07:12:48;;;;;;;52.62;3.87;;;;;;;18.12;61.74;99158.45;1369581;85;21051;-70
2022/07/28 07:14:49;;;;;;;98.07;8.03;;;;;;;18.13;61.64;99158.83;1361367;85;82109;-70
2022/07/28 07:16:50;;;;;;;157.97;9.30;;;;;;;18.16;61.46;99157.25;1359709;85;21320;-71
2022/07/28 07:18:51;;;;;;;29.02;3.42;;;;;;;18.19;61.38;99161.04;1358677;85;81097;-70
2022/07/28 07:20:53;;;;;;;5.90;2.10;;;;;;;18.23;61.41;99158.12;1358533;85;21042;-70
2022/07/28 07:22:54;;;;;;;14.93;2.20;;;;;;;18.27;61.44;99148.92;1359699;85;21586;-70
2022/07/28 07:24:55;;;;;;;21.62;2.67;;;;;;;18.32;61.27;99147.59;1355861;85;81021;-70
2022/07/28 07:26:56;;;;;;;9.43;2.20;;;;;;;18.41;61.56;99150.02;1358210;84;21590;-70
2022/07/28 07:28:57;;;;;;;18.37;2.60;;;;;;;18.51;61.19;99152.34;1356361;85;81599;-70
2022/07/28 07:30:59;;;;;;;16.20;2.33;;;;;;;18.61;61.37;99143.12;1359217;85;21015;-73
2022/07/28 07:32:59;;;;;;;6.00;2.08;;;;;;;18.75;61.20;99150.04;1357529;85;21095;-70
2022/07/28 07:35:01;;;;;;;10.98;2.20;;;;;;;18.87;61.01;99150.87;1360081;85;80793;-70
2022/07/28 07:37:02;;;;;;;3.70;1.80;;;;;;;18.92;60.70;99145.20;1358456;84;21120;-71
2022/07/28 07:39:03;;;;;;;10.70;1.90;;;;;;;19.01;60.60;99140.44;1361873;85;81598;-70
2022/07/28 07:41:04;;;;;;;25.72;2.47;;;;;;;19.09;60.78;99137.16;1366002;85;21135;-70
2022/07/28 07:43:06;;;;;;;4.75;1.82;;;;;;;19.18;60.57;99140.43;1364176;85;21043;-70
2022/07/28 07:45:07;;;;;;;8.05;2.05;;;;;;;19.30;60.65;99139.90;1336834;86;80731;-71
2022/07/28 07:47:09;;;;;;;9.13;2.17;;;;;;;19.38;60.75;99137.45;1366344;85;21071;-71
2022/07/28 07:49:11;;;;;;;8.98;1.72;;;;;;;19.46;60.53;99144.34;1362875;84;82359;-71
2022/07/28 07:51:12;;;;;;;4.78;1.90;;;;;;;19.55;60.71;99142.75;1338078;86;21065;-71
2022/07/28 07:53:13;;;;;;;8.50;1.85;;;;;;;19.72;60.67;99142.68;1365820;85;22198;-71
2022/07/28 07:55:14;;;;;;;10.43;2.25;;;;;;;19.74;60.17;99144.25;1363289;85;81200;-71
2022/07/28 07:57:15;;;;;;;2.62;1.85;;;;;;;19.78;60.38;99138.14;1364476;85;21590;-73
2022/07/28 07:59:16;;;;;;;6.37;1.85;;;;;;;19.93;60.00;99143.22;1367454;85;82093;-70
2022/07/28 08:01:17;;;;;;;3.90;1.80;;;;;;;19.99;59.62;99149.38;1366797;83;21655;-70
2022/07/28 08:03:18;;;;;;;8.10;1.80;;;;;;;20.05;59.81;99141.69;1365906;85;21017;-69
2022/07/28 08:05:19;;;;;;;6.92;1.85;;;;;;;20.12;59.75;99150.04;1364947;83;80588;-69
2022/07/28 08:07:20;;;;;;;9.68;1.90;;;;;;;20.18;59.74;99141.47;1364634;85;21068;-69
2022/07/28 08:09:21;;;;;;;20.27;2.00;;;;;;;20.22;59.27;99145.58;1361420;85;81070;-69
2022/07/28 08:11:22;;;;;;;8.25;1.98;;;;;;;20.26;59.18;99144.84;1365674;85;21088;-69
2022/07/28 08:13:23;;;;;;;6.28;1.92;;;;;;;20.33;59.42;99143.33;1366765;85;21039;-69
2022/07/28 08:15:25;;;;;;;12.85;1.72;;;;;;;20.42;59.28;99140.34;1334325;86;80711;-69
2022/07/28 08:17:26;;;;;;;4.97;2.08;;;;;;;20.45;58.98;99138.75;1365774;85;21063;-70
2022/07/28 08:19:27;;;;;;;13.28;1.85;;;;;;;20.52;58.65;99138.57;1358323;85;81455;-69
2022/07/28 08:21:29;;;;;;;14.55;1.55;;;;;;;20.58;58.64;99135.84;1358829;85;20997;-70
2022/07/28 08:23:30;;;;;;;8.33;1.57;;;;;;;20.62;58.40;99141.30;1363235;84;21226;-70
2022/07/28 08:25:36;;;;;;;10.28;1.90;;;;;;;20.68;58.30;99138.59;1355144;85;80629;-69
2022/07/28 08:27:37;;;;;;;23.83;2.12;;;;;;;20.75;58.29;99136.59;1357079;85;21099;-70
2022/07/28 08:29:38;;;;;;;5.30;1.50;;;;;;;20.88;57.71;99130.98;1335366;85;81790;-70
2022/07/28 08:31:39;;;;;;;16.32;1.87;;;;;;;20.95;57.39;99133.11;1364197;83;21120;-70
2022/07/28 08:33:40;;;;;;;12.07;1.80;;;;;;;20.99;56.87;99135.87;1362480;84;21518;-70
2022/07/28 08:35:42;;;;;;;14.20;2.08;;;;;;;20.98;56.07;99135.54;1386791;82;80854;-70
2022/07/28 08:37:45;;;;;;;18.40;2.12;;;;;;;20.97;56.63;99133.83;1392238;82;21098;-71
2022/07/28 08:39:46;;;;;;;11.93;1.95;;;;;;;21.13;57.09;99131.95;1387989;82;81738;-70
2022/07/28 08:41:59;;;;;;;29.80;2.08;;;;;;;21.33;56.52;99131.00;1389080;82;21055;-70
2022/07/28 08:44:02;;;;;;;14.25;1.55;;;;;;;21.43;55.96;99135.91;1385542;82;81131;-71
2022/07/28 08:46:05;;;;;;;21.80;2.25;;;;;;;21.55;56.37;99128.59;1389425;83;21072;-69
2022/07/28 08:48:08;;;;;;;11.80;1.90;;;;;;;21.73;56.09;99134.59;1388951;83;22327;-70
2022/07/28 08:50:13;;;;;;;7.35;1.57;;;;;;;21.87;56.13;99134.16;1387699;83;81000;-69
2022/07/28 08:52:16;;;;;;;13.48;1.70;;;;;;;22.03;55.91;99134.05;1390741;83;22063;-71
2022/07/28 08:54:24;;;;;;;5.92;1.40;;;;;;;22.15;55.72;99134.76;1391164;82;81088;-70
2022/07/28 08:56:26;;;;;;;18.60;2.45;;;;;;;22.20;55.37;99131.98;1391561;83;21068;-70
2022/07/28 08:58:28;;;;;;;12.68;1.87;;;;;;;22.19;55.17;99131.63;1391017;83;21029;-70
2022/07/28 09:00:29;;;;;;;5.17;1.67;;;;;;;22.23;55.29;99134.38;1386302;83;82072;-70
2022/07/28 09:02:32;;;;;;;5.15;1.40;;;;;;;22.33;55.46;99133.00;1390062;82;21302;-70
2022/07/28 09:04:35;;;;;;;10.90;1.30;;;;;;;22.36;54.79;99131.91;1387633;82;82241;-74
2022/07/28 09:06:40;;;;;;;11.15;1.17;;;;;;;22.33;53.85;99125.45;1389122;83;21571;-70
2022/07/28 09:08:39;;;;;;;9.98;1.82;;;;;;;22.28;54.22;99125.39;1387390;82;22305;-70
2022/07/28 09:10:40;;;;;;;13.05;2.33;;;;;;;22.42;54.81;99124.11;1385184;82;80943;-69
2022/07/28 09:12:40;;;;;;;2.00;1.30;;;;;;;22.51;54.54;99121.03;1388198;84;21087;-69
2022/07/28 09:14:42;;;;;;;4.25;1.60;;;;;;;22.59;54.11;99127.02;1389970;82;81066;-69
2022/07/28 09:16:43;;;;;;;2.92;1.47;;;;;;;22.64;54.31;99123.88;1385770;80;21032;-70
2022/07/28 09:18:44;;;;;;;10.95;1.80;;;;;;;22.66;54.09;99121.91;1390840;83;21567;-74
2022/07/28 09:20:45;;;;;;;15.88;2.05;;;;;;;22.66;54.46;99117.37;1386333;83;81619;-70
2022/07/28 09:23:01;;;;;;;10.65;2.17;;;;;;;22.71;54.10;99115.09;1390254;82;21060;-70
2022/07/28 09:25:02;;;;;;;8.40;1.92;;;;;;;22.74;53.94;99113.95;1386508;83;81540;-70
2022/07/28 09:27:10;;;;;;;13.68;2.20;;;;;;;22.81;53.98;99113.70;1391727;82;21092;-70
2022/07/28 09:29:11;;;;;;;12.70;2.27;;;;;;;22.82;52.94;99118.57;1362604;83;80947;-70
2022/07/28 09:31:13;;;;;;;9.63;1.42;;;;;;;22.78;52.97;99120.73;1365464;85;21071;-70
2022/07/28 09:33:23;;;;;;;3.17;1.47;;;;;;;22.74;52.91;99122.02;1365419;85;21575;-70
2022/07/28 09:35:25;;;;;;;10.65;1.55;;;;;;;22.72;53.38;99120.83;1363425;85;81465;-71
2022/07/28 09:37:26;;;;;;;5.97;1.80;;;;;;;22.82;53.36;99123.95;1365350;85;21056;-70
2022/07/28 09:39:32;;;;;;;13.43;1.72;;;;;;;22.85;53.54;99121.81;1342213;86;81725;-70
2022/07/28 09:41:48;;;;;;;11.18;1.67;;;;;;;22.95;52.99;99109.67;1366047;85;21106;-70
2022/07/28 09:43:51;;;;;;;8.60;2.05;;;;;;;23.01;52.74;99109.08;1364823;85;21056;-70
2022/07/28 09:45:55;;;;;;;5.30;1.85;;;;;;;23.15;52.78;99117.64;1364295;85;81645;-68